Time;durP1;ratioP1;P1;durP2;ratioP2;P2;SDS_P1;SDS_P2;PMS_P1;PMS_P2;Temp;Humidity;BMP_temperature;BMP_pressure;BME280_temperature;BME280_humidity;BME280_pressure;Samples;Min_cycle;Max_cycle;Signal;HPM_P1;HPM_P2
2022/02/22 00:00:14;;;;;;;30.80;6.93;;;;;;;-142.43;100.00;63430.59;4981190;28;20054;-83
2022/02/22 00:02:41;;;;;;;31.65;6.30;;;;;;;-142.43;100.00;63430.59;4967325;29;20490;-83
2022/02/22 00:05:09;;;;;;;26.30;6.00;;;;;;;-142.43;100.00;63430.59;4961487;29;20055;-82
2022/02/22 00:07:36;;;;;;;39.63;6.63;;;;;;;-142.43;100.00;63430.59;4966945;28;20051;-83
2022/02/22 00:10:03;;;;;;;33.78;6.68;;;;;;;-142.43;100.00;63430.59;4968163;28;20118;-81
2022/02/22 00:12:30;;;;;;;30.60;6.20;;;;;;;-142.43;100.00;63430.59;4966255;29;20149;-82
2022/02/22 00:14:59;;;;;;;27.50;6.22;;;;;;;-142.43;100.00;63430.59;4964030;29;20229;-83
2022/02/22 00:17:25;;;;;;;34.47;6.60;;;;;;;-142.43;100.00;63430.59;4968635;29;20055;-82
2022/02/22 00:19:52;;;;;;;27.95;5.80;;;;;;;-142.43;100.00;63430.59;4967853;29;20042;-82
2022/02/22 00:22:19;;;;;;;32.90;6.30;;;;;;;-142.43;100.00;63430.59;4967714;28;20043;-80
2022/02/22 00:24:45;;;;;;;31.10;6.22;;;;;;;-142.43;100.00;63430.59;4969707;29;20110;-81
2022/02/22 00:27:12;;;;;;;32.60;6.18;;;;;;;-142.43;100.00;63430.59;4971077;29;20062;-83
2022/02/22 00:29:39;;;;;;;27.85;6.40;;;;;;;-142.43;100.00;63430.59;4960174;29;20051;-82
2022/02/22 00:32:08;;;;;;;30.40;6.90;;;;;;;-142.43;100.00;63430.59;4958895;28;20075;-82
2022/02/22 00:34:34;;;;;;;35.15;6.43;;;;;;;-142.43;100.00;63430.59;4958583;29;20154;-82
2022/02/22 00:37:01;;;;;;;31.95;6.50;;;;;;;-142.43;100.00;63430.59;4957847;29;20111;-80
2022/02/22 00:39:28;;;;;;;29.48;5.95;;;;;;;-142.43;100.00;63430.59;4962296;28;20125;-82
2022/02/22 00:41:54;;;;;;;34.08;6.05;;;;;;;-142.43;100.00;63430.59;4967703;28;20047;-81
2022/02/22 00:44:23;;;;;;;30.73;6.18;;;;;;;-142.43;100.00;63430.59;4964530;28;20091;-81
2022/02/22 00:46:50;;;;;;;36.97;6.22;;;;;;;-142.43;100.00;63430.59;4966237;28;20047;-80
2022/02/22 00:49:18;;;;;;;32.03;6.20;;;;;;;-142.43;100.00;63430.59;4958046;29;20053;-81
2022/02/22 00:51:45;;;;;;;32.13;5.95;;;;;;;-142.43;100.00;63430.59;4957892;28;20053;-81
2022/02/22 00:54:12;;;;;;;31.02;6.63;;;;;;;-142.43;100.00;63430.59;4959394;29;20078;-81
2022/02/22 00:56:38;;;;;;;32.22;5.97;;;;;;;-142.43;100.00;63430.59;4957443;29;20530;-81
2022/02/22 00:59:05;;;;;;;28.80;6.88;;;;;;;-142.43;100.00;63430.59;4956370;29;20086;-81
2022/02/22 01:01:31;;;;;;;30.75;6.45;;;;;;;-142.43;100.00;63430.59;4966552;28;20133;-82
2022/02/22 01:03:58;;;;;;;29.88;6.03;;;;;;;-142.43;100.00;63430.59;4976225;28;20061;-82
2022/02/22 01:06:26;;;;;;;37.63;7.25;;;;;;;-142.43;100.00;63430.59;4976879;28;20051;-81
2022/02/22 01:08:53;;;;;;;30.70;6.45;;;;;;;-142.43;100.00;63430.59;4977301;28;20090;-83
2022/02/22 01:11:19;;;;;;;36.88;7.13;;;;;;;-142.43;100.00;63430.59;4982230;28;20465;-81
2022/02/22 01:13:46;;;;;;;29.00;5.13;;;;;;;-142.43;100.00;63430.59;4987789;28;20465;-81
2022/02/22 01:16:13;;;;;;;33.58;6.30;;;;;;;-142.43;100.00;63430.59;4986230;28;20125;-82
2022/02/22 01:18:39;;;;;;;29.17;6.35;;;;;;;-142.43;100.00;63430.59;4969631;28;20101;-82
2022/02/22 01:21:06;;;;;;;32.72;6.35;;;;;;;-142.43;100.00;63430.59;4975291;28;20089;-82
2022/02/22 01:23:34;;;;;;;32.78;5.75;;;;;;;-142.43;100.00;63430.59;4976044;28;20046;-83
2022/02/22 01:26:00;;;;;;;30.75;5.95;;;;;;;-142.43;100.00;63430.59;4993625;28;20042;-84
2022/02/22 01:28:27;;;;;;;38.90;6.55;;;;;;;-142.43;100.00;63430.59;4990100;28;20078;-83
2022/02/22 01:30:54;;;;;;;38.85;6.50;;;;;;;-142.43;100.00;63430.59;4980071;28;20088;-84
2022/02/22 01:33:20;;;;;;;32.90;6.78;;;;;;;-142.43;100.00;63430.59;4976705;28;20047;-80
2022/02/22 01:35:47;;;;;;;32.72;5.90;;;;;;;-142.43;100.00;63430.59;4974385;28;20114;-80
2022/02/22 01:38:14;;;;;;;31.08;6.93;;;;;;;-142.43;100.00;63430.59;4965006;28;20057;-81
2022/02/22 01:40:42;;;;;;;42.00;6.80;;;;;;;-142.43;100.00;63430.59;4956564;28;20145;-82
2022/02/22 01:43:08;;;;;;;38.55;7.10;;;;;;;-142.43;100.00;63430.59;4957754;29;20114;-82
2022/02/22 01:45:36;;;;;;;36.95;6.18;;;;;;;-142.43;100.00;63430.59;4958070;29;20462;-81
2022/02/22 01:48:03;;;;;;;31.17;7.72;;;;;;;-142.43;100.00;63430.59;4956885;29;20059;-82
2022/02/22 01:50:30;;;;;;;39.25;6.90;;;;;;;-142.43;100.00;63430.59;4957677;28;20075;-82
2022/02/22 01:52:56;;;;;;;40.92;6.70;;;;;;;-142.43;100.00;63430.59;4958216;29;20132;-83
2022/02/22 01:55:23;;;;;;;32.13;6.88;;;;;;;-142.43;100.00;63430.59;4958017;29;20137;-84
2022/02/22 01:57:51;;;;;;;39.40;8.05;;;;;;;-142.43;100.00;63430.59;4958249;29;20055;-81
2022/02/22 02:00:18;;;;;;;35.20;6.82;;;;;;;-142.43;100.00;63430.59;4958240;28;20466;-82
2022/02/22 02:02:45;;;;;;;32.83;6.75;;;;;;;-142.43;100.00;63430.59;4958637;29;20106;-81
2022/02/22 02:05:12;;;;;;;42.60;7.05;;;;;;;-142.43;100.00;63430.59;4958632;29;20146;-81
2022/02/22 02:07:39;;;;;;;39.08;7.22;;;;;;;-142.43;100.00;63430.59;4959049;29;20055;-81
2022/02/22 02:10:06;;;;;;;32.15;6.97;;;;;;;-142.43;100.00;63430.59;4958091;28;20518;-83
2022/02/22 02:12:40;;;;;;;42.88;7.88;;;;;;;-142.43;100.00;63430.59;4958229;29;20111;-82
2022/02/22 02:15:10;;;;;;;39.83;7.75;;;;;;;-142.43;100.00;63430.59;4960689;29;20079;-82
2022/02/22 02:17:37;;;;;;;37.38;6.95;;;;;;;-142.43;100.00;63430.59;4957875;29;20111;-82
2022/02/22 02:20:04;;;;;;;34.85;7.68;;;;;;;-142.43;100.00;63430.59;4956237;28;20091;-81
2022/02/22 02:22:32;;;;;;;37.15;7.22;;;;;;;-142.43;100.00;63430.59;4956929;29;20110;-82
2022/02/22 02:24:59;;;;;;;37.60;6.97;;;;;;;-142.43;100.00;63430.59;4956843;29;20051;-80
2022/02/22 02:27:26;;;;;;;37.15;6.75;;;;;;;-142.43;100.00;63430.59;4956297;29;20054;-81
2022/02/22 02:29:54;;;;;;;32.58;6.47;;;;;;;-142.43;100.00;63430.59;4956192;28;20058;-82
2022/02/22 02:32:21;;;;;;;35.75;6.75;;;;;;;-142.43;100.00;63430.59;4959233;28;20082;-82
2022/02/22 02:34:48;;;;;;;35.20;6.65;;;;;;;-142.43;100.00;63430.59;4959355;29;20436;-81
2022/02/22 02:37:14;;;;;;;42.70;8.27;;;;;;;-142.43;100.00;63430.59;4959843;29;20134;-82
2022/02/22 02:39:42;;;;;;;37.45;6.50;;;;;;;-142.43;100.00;63430.59;4960088;29;20051;-82
2022/02/22 02:42:09;;;;;;;37.47;7.80;;;;;;;-142.43;100.00;63430.59;4960363;28;20568;-82
2022/02/22 02:44:35;;;;;;;36.20;8.07;;;;;;;-142.43;100.00;63430.59;4961647;29;20107;-82
2022/02/22 02:47:04;;;;;;;29.83;6.07;;;;;;;-142.43;100.00;63430.59;4961932;29;20530;-82
2022/02/22 02:49:31;;;;;;;27.25;6.45;;;;;;;-142.43;100.00;63430.59;4965206;29;20147;-81
2022/02/22 02:51:58;;;;;;;41.33;6.82;;;;;;;-142.43;100.00;63430.59;4960477;28;20098;-81
2022/02/22 02:54:24;;;;;;;32.75;7.05;;;;;;;-142.43;100.00;63430.59;4960056;29;20565;-82
2022/02/22 02:56:52;;;;;;;32.22;6.53;;;;;;;-142.43;100.00;63430.59;4960058;29;20115;-82
2022/02/22 02:59:19;;;;;;;31.77;6.93;;;;;;;-142.43;100.00;63430.59;4960695;29;20115;-81
2022/02/22 03:01:45;;;;;;;34.47;6.97;;;;;;;-142.43;100.00;63430.59;5011716;23;20114;-83
2022/02/22 03:04:13;;;;;;;30.48;6.28;;;;;;;-142.43;100.00;63430.59;5014001;28;20046;-85
2022/02/22 03:06:40;;;;;;;33.10;6.55;;;;;;;-142.43;100.00;63430.59;5009876;28;20089;-85
2022/02/22 03:09:07;;;;;;;38.63;7.68;;;;;;;-142.43;100.00;63430.59;5005734;28;20054;-85
2022/02/22 03:11:34;;;;;;;48.50;8.50;;;;;;;-142.43;100.00;63430.59;4994526;28;20123;-84
2022/02/22 03:14:02;;;;;;;35.58;7.57;;;;;;;-142.43;100.00;63430.59;4984449;28;20106;-83
2022/02/22 03:16:29;;;;;;;41.05;7.10;;;;;;;-142.43;100.00;63430.59;4986717;28;20054;-81
2022/02/22 03:18:55;;;;;;;32.30;6.18;;;;;;;-142.43;100.00;63430.59;4988992;28;20050;-81
2022/02/22 03:21:22;;;;;;;43.15;7.40;;;;;;;-142.43;100.00;63430.59;4989278;28;20062;-81
2022/02/22 03:23:49;;;;;;;31.92;5.75;;;;;;;-142.43;100.00;63430.59;4989458;28;20119;-80
2022/02/22 03:26:18;;;;;;;40.63;6.75;;;;;;;-142.43;100.00;63430.59;4990030;28;20082;-81
2022/02/22 03:28:44;;;;;;;50.83;7.43;;;;;;;-142.43;100.00;63430.59;4988165;28;20051;-81
2022/02/22 03:31:12;;;;;;;36.53;7.18;;;;;;;-142.43;100.00;63430.59;4988251;28;20085;-81
2022/02/22 03:33:39;;;;;;;41.63;7.47;;;;;;;-142.43;100.00;63430.59;4988313;28;20122;-80
2022/02/22 03:36:06;;;;;;;28.40;6.28;;;;;;;-142.43;100.00;63430.59;4988306;28;20085;-81
2022/02/22 03:38:33;;;;;;;43.47;7.10;;;;;;;-142.43;100.00;63430.59;4987449;28;20522;-81
2022/02/22 03:41:01;;;;;;;46.65;8.35;;;;;;;-142.43;100.00;63430.59;4980344;28;20078;-81
2022/02/22 03:43:28;;;;;;;35.15;6.63;;;;;;;-142.43;100.00;63430.59;4986629;28;20057;-81
2022/02/22 03:45:55;;;;;;;39.92;6.30;;;;;;;-142.43;100.00;63430.59;4986228;28;20114;-81
2022/02/22 03:48:23;;;;;;;35.85;6.32;;;;;;;-142.43;100.00;63430.59;4983458;28;20190;-81
2022/02/22 03:50:58;;;;;;;39.80;7.40;;;;;;;-142.43;100.00;63430.59;4985555;28;20055;-81
2022/02/22 03:53:25;;;;;;;37.65;7.68;;;;;;;-142.43;100.00;63430.59;4984173;28;20505;-81
2022/02/22 03:55:52;;;;;;;47.13;7.60;;;;;;;-142.43;100.00;63430.59;4976060;28;20122;-81
2022/02/22 03:58:18;;;;;;;42.25;7.40;;;;;;;-142.43;100.00;63430.59;4964570;28;20756;-81
2022/02/22 04:00:45;;;;;;;37.15;6.97;;;;;;;-142.43;100.00;63430.59;4983040;28;20118;-80
2022/02/22 04:03:12;;;;;;;39.90;7.25;;;;;;;-142.43;100.00;63430.59;4983379;28;20057;-81
2022/02/22 04:05:42;;;;;;;36.85;7.22;;;;;;;-142.43;100.00;63430.59;4982087;28;20093;-81
2022/02/22 04:08:09;;;;;;;43.30;9.23;;;;;;;-142.43;100.00;63430.59;4981658;28;20050;-81
2022/02/22 04:10:35;;;;;;;29.52;6.55;;;;;;;-142.43;100.00;63430.59;4982664;28;20497;-80
2022/02/22 04:13:02;;;;;;;43.03;6.72;;;;;;;-142.43;100.00;63430.59;4983167;28;20565;-81
2022/02/22 04:15:29;;;;;;;35.28;6.50;;;;;;;-142.43;100.00;63430.59;4982646;28;20130;-81
2022/02/22 04:17:55;;;;;;;34.85;6.55;;;;;;;-142.43;100.00;63430.59;4980240;28;20351;-79
2022/02/22 04:20:22;;;;;;;43.58;6.88;;;;;;;-142.43;100.00;63430.59;4983649;28;20078;-80
2022/02/22 04:22:50;;;;;;;35.78;6.30;;;;;;;-142.43;100.00;63430.59;4984305;28;20082;-80
2022/02/22 04:25:17;;;;;;;49.28;8.68;;;;;;;-142.43;100.00;63430.59;4983636;28;20156;-80
2022/02/22 04:27:43;;;;;;;41.88;6.47;;;;;;;-142.43;100.00;63430.59;4982275;28;20138;-80
2022/02/22 04:30:11;;;;;;;36.97;8.30;;;;;;;-142.43;100.00;63430.59;4981494;28;20090;-80
2022/02/22 04:32:38;;;;;;;41.05;6.97;;;;;;;-142.43;100.00;63430.59;4982678;28;20059;-81
2022/02/22 04:35:07;;;;;;;30.90;6.40;;;;;;;-142.43;100.00;63430.59;4980599;28;20078;-80
2022/02/22 04:37:34;;;;;;;33.95;6.60;;;;;;;-142.43;100.00;63430.59;4984029;28;20463;-79
2022/02/22 04:40:02;;;;;;;41.05;8.32;;;;;;;-142.43;100.00;63430.59;4984075;28;20110;-80
2022/02/22 04:42:28;;;;;;;43.88;6.45;;;;;;;-142.43;100.00;63430.59;4986857;28;20111;-80
2022/02/22 04:44:55;;;;;;;46.50;7.00;;;;;;;-142.43;100.00;63430.59;4989235;28;20078;-80
2022/02/22 04:47:22;;;;;;;36.63;7.00;;;;;;;-142.43;100.00;63430.59;4989131;28;20074;-80
2022/02/22 04:49:49;;;;;;;37.35;7.70;;;;;;;-142.43;100.00;63430.59;4987860;28;20051;-80
2022/02/22 04:52:15;;;;;;;29.23;6.13;;;;;;;-142.43;100.00;63430.59;4987321;28;20054;-80
2022/02/22 04:54:42;;;;;;;41.33;7.38;;;;;;;-142.43;100.00;63430.59;4987885;28;20053;-80
2022/02/22 04:57:10;;;;;;;43.53;7.88;;;;;;;-142.43;100.00;63430.59;4987628;28;20199;-80
2022/02/22 04:59:39;;;;;;;41.50;8.30;;;;;;;-142.43;100.00;63430.59;4986874;28;20081;-80
2022/02/22 05:02:06;;;;;;;39.20;6.95;;;;;;;-142.43;100.00;63430.59;4988257;28;20116;-81
2022/02/22 05:04:33;;;;;;;36.45;6.03;;;;;;;-142.43;100.00;63430.59;4987632;28;20051;-81
2022/02/22 05:07:04;;;;;;;43.28;7.63;;;;;;;-142.43;100.00;63430.59;4985435;28;20079;-81
2022/02/22 05:09:30;;;;;;;33.45;7.47;;;;;;;-142.43;100.00;63430.59;4985278;28;20055;-80
2022/02/22 05:11:57;;;;;;;36.80;6.75;;;;;;;-142.43;100.00;63430.59;4986496;28;20061;-80
2022/02/22 05:14:25;;;;;;;33.80;7.57;;;;;;;-142.43;100.00;63430.59;4984903;28;20047;-80
2022/02/22 05:16:52;;;;;;;35.08;6.22;;;;;;;-142.43;100.00;63430.59;4984463;28;20510;-81
2022/02/22 05:19:24;;;;;;;39.78;6.80;;;;;;;-142.43;100.00;63430.59;4983477;28;20059;-81
2022/02/22 05:21:51;;;;;;;42.80;7.03;;;;;;;-142.43;100.00;63430.59;4984502;28;20098;-80
2022/02/22 05:24:17;;;;;;;33.88;6.45;;;;;;;-142.43;100.00;63430.59;4983162;28;20073;-81
2022/02/22 05:26:44;;;;;;;42.58;6.45;;;;;;;-142.43;100.00;63430.59;4982458;28;20053;-81
2022/02/22 05:29:10;;;;;;;40.80;7.68;;;;;;;-142.43;100.00;63430.59;4982045;28;20538;-81
2022/02/22 05:31:38;;;;;;;41.53;9.00;;;;;;;-142.43;100.00;63430.59;4975295;28;20510;-80
2022/02/22 05:34:05;;;;;;;36.50;6.25;;;;;;;-142.43;100.00;63430.59;4981920;28;20106;-80
2022/02/22 05:36:32;;;;;;;46.63;6.75;;;;;;;-142.43;100.00;63430.59;4983730;28;20722;-80
2022/02/22 05:39:17;;;;;;;32.63;6.07;;;;;;;-142.43;100.00;63430.59;4982228;28;20143;-80
2022/02/22 05:44:11;;;;;;;39.03;8.55;;;;;;;-142.43;100.00;63430.59;4963738;29;20052;-81
2022/02/22 05:46:42;;;;;;;42.75;7.53;;;;;;;-142.43;100.00;63430.59;4967049;29;20100;-81
2022/02/22 05:49:09;;;;;;;46.28;7.85;;;;;;;-142.43;100.00;63430.59;4966903;29;20086;-82
2022/02/22 05:51:37;;;;;;;49.42;8.68;;;;;;;-142.43;100.00;63430.59;4967414;29;20061;-81
2022/02/22 05:54:04;;;;;;;35.25;9.35;;;;;;;-142.43;100.00;63430.59;4967233;29;20075;-81
2022/02/22 05:59:02;;;;;;;40.88;8.93;;;;;;;-142.43;100.00;63430.59;4960129;29;20071;-83
2022/02/22 06:01:29;;;;;;;43.40;8.75;;;;;;;-142.43;100.00;63430.59;4960917;29;20070;-83
2022/02/22 06:03:57;;;;;;;40.90;7.85;;;;;;;-142.43;100.00;63430.59;4961460;28;20047;-83
2022/02/22 06:06:23;;;;;;;37.92;8.60;;;;;;;-142.43;100.00;63430.59;4965353;29;20106;-83
2022/02/22 06:08:50;;;;;;;45.33;9.50;;;;;;;-142.43;100.00;63430.59;4962590;29;20111;-83
2022/02/22 06:11:17;;;;;;;36.85;8.63;;;;;;;-142.43;100.00;63430.59;4963114;29;20051;-81
2022/02/22 06:13:44;;;;;;;48.42;10.40;;;;;;;-142.43;100.00;63430.59;4963882;29;20110;-84
2022/02/22 06:16:10;;;;;;;40.15;7.72;;;;;;;-142.43;100.00;63430.59;4964501;29;20114;-82
2022/02/22 06:18:37;;;;;;;34.78;7.53;;;;;;;-142.43;100.00;63430.59;4964161;29;20051;-83
2022/02/22 06:21:05;;;;;;;35.78;6.85;;;;;;;-142.43;100.00;63430.59;4966499;29;20166;-83
2022/02/22 06:23:31;;;;;;;37.30;7.53;;;;;;;-142.43;100.00;63430.59;4965304;29;20137;-83
2022/02/22 06:25:58;;;;;;;39.17;7.18;;;;;;;-142.43;100.00;63430.59;4963430;29;20055;-83
2022/02/22 06:28:25;;;;;;;44.05;7.57;;;;;;;-142.43;100.00;63430.59;4963525;29;20066;-83
2022/02/22 06:30:51;;;;;;;31.45;6.38;;;;;;;-142.43;100.00;63430.59;4964704;29;20078;-82
2022/02/22 06:33:18;;;;;;;39.85;6.32;;;;;;;-142.43;100.00;63430.59;4964520;29;20481;-83
2022/02/22 06:35:44;;;;;;;36.08;7.75;;;;;;;-142.43;100.00;63430.59;4962757;29;20079;-83
2022/02/22 06:38:12;;;;;;;34.58;7.43;;;;;;;-142.43;100.00;63430.59;4961198;29;20051;-82
2022/02/22 06:40:39;;;;;;;49.85;7.70;;;;;;;-142.43;100.00;63430.59;4961465;29;20089;-83
2022/02/22 06:43:05;;;;;;;32.20;7.25;;;;;;;-142.43;100.00;63430.59;4961411;29;20080;-81
2022/02/22 06:45:32;;;;;;;46.40;6.45;;;;;;;-142.43;100.00;63430.59;4960261;29;20108;-81
2022/02/22 06:47:59;;;;;;;28.95;7.05;;;;;;;-142.43;100.00;63430.59;4962547;29;20090;-80
2022/02/22 06:50:26;;;;;;;35.10;6.20;;;;;;;-142.43;100.00;63430.59;4964854;29;20051;-80
2022/02/22 06:52:53;;;;;;;37.28;6.28;;;;;;;-142.43;100.00;63430.59;4962053;29;20467;-80
2022/02/22 06:55:21;;;;;;;30.60;7.45;;;;;;;-142.43;100.00;63430.59;4961608;29;20183;-80
2022/02/22 06:57:51;;;;;;;30.92;5.82;;;;;;;-142.43;100.00;63430.59;4962224;29;20110;-80
2022/02/22 07:00:18;;;;;;;27.85;7.28;;;;;;;-142.43;100.00;63430.59;4962530;29;20431;-81
2022/02/22 07:02:45;;;;;;;32.35;5.78;;;;;;;-142.43;100.00;63430.59;4961423;29;20114;-80
2022/02/22 07:05:12;;;;;;;34.38;6.20;;;;;;;-142.43;100.00;63430.59;4960406;29;20136;-80
2022/02/22 07:07:39;;;;;;;36.15;6.18;;;;;;;-142.43;100.00;63430.59;4961387;29;20066;-81
2022/02/22 07:10:07;;;;;;;31.52;6.32;;;;;;;-142.43;100.00;63430.59;4964073;29;20426;-81
2022/02/22 07:12:34;;;;;;;33.45;7.40;;;;;;;-142.43;100.00;63430.59;4964464;29;20067;-82
2022/02/22 07:15:02;;;;;;;39.33;7.30;;;;;;;-142.43;100.00;63430.59;4965299;29;20159;-82
2022/02/22 07:17:29;;;;;;;24.70;6.80;;;;;;;-142.43;100.00;63430.59;4957661;28;20090;-82
2022/02/22 07:19:56;;;;;;;34.17;7.47;;;;;;;-142.43;100.00;63430.59;4964142;28;20115;-82
2022/02/22 07:22:22;;;;;;;33.65;8.45;;;;;;;-142.43;100.00;63430.59;4962599;29;20374;-82
2022/02/22 07:24:49;;;;;;;30.73;6.82;;;;;;;-142.43;100.00;63430.59;4962301;29;20133;-81
2022/02/22 07:27:15;;;;;;;30.52;6.88;;;;;;;-142.43;100.00;63430.59;4960980;29;20086;-81
2022/02/22 07:29:42;;;;;;;28.08;6.65;;;;;;;-142.43;100.00;63430.59;4961665;29;20107;-82
2022/02/22 07:32:10;;;;;;;34.47;6.45;;;;;;;-142.43;100.00;63430.59;4967216;29;20058;-80
2022/02/22 07:34:37;;;;;;;28.40;7.65;;;;;;;-142.43;100.00;63430.59;4962850;29;20062;-81
2022/02/22 07:37:04;;;;;;;28.80;6.75;;;;;;;-142.43;100.00;63430.59;4961232;29;20597;-82
2022/02/22 07:39:31;;;;;;;25.55;7.00;;;;;;;-142.43;100.00;63430.59;4961314;29;20079;-82
2022/02/22 07:41:57;;;;;;;22.30;6.30;;;;;;;-142.43;100.00;63430.59;4961903;29;20051;-83
2022/02/22 07:44:25;;;;;;;35.25;7.47;;;;;;;-142.43;100.00;63430.59;4962009;29;20185;-82
2022/02/22 07:46:52;;;;;;;28.00;6.10;;;;;;;-142.43;100.00;63430.59;4961852;29;20047;-82
2022/02/22 07:49:20;;;;;;;36.28;7.32;;;;;;;-142.43;100.00;63430.59;4960976;29;20487;-82
2022/02/22 07:51:46;;;;;;;33.67;7.30;;;;;;;-142.43;100.00;63430.59;4963820;29;20130;-81
2022/02/22 07:54:13;;;;;;;26.48;8.10;;;;;;;-142.43;100.00;63430.59;4964536;29;20085;-81
2022/02/22 07:56:39;;;;;;;22.33;7.22;;;;;;;-142.43;100.00;63430.59;4960928;29;20143;-82
2022/02/22 07:59:06;;;;;;;32.25;7.85;;;;;;;-142.43;100.00;63430.59;4960474;29;20054;-80
2022/02/22 08:01:33;;;;;;;29.23;7.22;;;;;;;-142.43;100.00;63430.59;4962117;29;20082;-81
2022/02/22 08:03:59;;;;;;;28.95;7.28;;;;;;;-142.43;100.00;63430.59;4962686;29;20055;-81
2022/02/22 08:06:28;;;;;;;30.70;6.75;;;;;;;-142.43;100.00;63430.59;4959952;29;20086;-81
2022/02/22 08:08:54;;;;;;;27.15;7.03;;;;;;;-142.43;100.00;63430.59;4961365;29;20081;-82
2022/02/22 08:11:22;;;;;;;31.38;7.40;;;;;;;-142.43;100.00;63430.59;4961996;29;20193;-82
2022/02/22 08:13:48;;;;;;;27.63;6.75;;;;;;;-142.43;100.00;63430.59;4963053;29;20066;-82
2022/02/22 08:16:15;;;;;;;23.65;6.65;;;;;;;-142.43;100.00;63430.59;4964041;29;20122;-81
2022/02/22 08:18:42;;;;;;;25.35;7.03;;;;;;;-142.43;100.00;63430.59;4963889;29;20406;-82
2022/02/22 08:21:09;;;;;;;20.25;5.90;;;;;;;-142.43;100.00;63430.59;4963194;29;20051;-82
2022/02/22 08:23:37;;;;;;;26.90;7.88;;;;;;;-142.43;100.00;63430.59;4962907;29;20047;-81
2022/02/22 08:26:05;;;;;;;30.00;8.40;;;;;;;-142.43;100.00;63430.59;4962848;29;20055;-82
2022/02/22 08:28:32;;;;;;;19.80;6.47;;;;;;;-142.43;100.00;63430.59;4961336;28;20514;-81
2022/02/22 08:30:59;;;;;;;31.60;10.25;;;;;;;-142.43;100.00;63430.59;4961490;29;20079;-82
2022/02/22 08:33:25;;;;;;;24.27;6.40;;;;;;;-142.43;100.00;63430.59;4961905;29;20054;-81
2022/02/22 08:35:53;;;;;;;26.85;6.95;;;;;;;-142.43;100.00;63430.59;4961921;29;20058;-83
2022/02/22 08:38:20;;;;;;;28.83;6.03;;;;;;;-142.43;100.00;63430.59;4959632;29;20058;-82
2022/02/22 08:40:49;;;;;;;28.67;7.38;;;;;;;-142.43;100.00;63430.59;4960909;29;20058;-83
2022/02/22 08:43:16;;;;;;;24.90;7.50;;;;;;;-142.43;100.00;63430.59;4962811;29;20082;-83
2022/02/22 08:45:44;;;;;;;29.30;7.85;;;;;;;-142.43;100.00;63430.59;4961590;29;20043;-83
2022/02/22 08:48:11;;;;;;;25.73;7.65;;;;;;;-142.43;100.00;63430.59;4961765;29;20478;-83
2022/02/22 08:50:37;;;;;;;24.25;7.35;;;;;;;-142.43;100.00;63430.59;4963417;29;20536;-84
2022/02/22 08:53:04;;;;;;;21.48;8.00;;;;;;;-142.43;100.00;63430.59;4963676;29;20087;-83
2022/02/22 08:55:31;;;;;;;26.00;7.80;;;;;;;-142.43;100.00;63430.59;4961369;29;20039;-83
2022/02/22 08:57:59;;;;;;;25.75;8.35;;;;;;;-142.43;100.00;63430.59;4960685;29;20070;-82
2022/02/22 09:00:26;;;;;;;24.25;8.57;;;;;;;-142.43;100.00;63430.59;4961039;29;20229;-83
2022/02/22 09:02:57;;;;;;;29.48;8.93;;;;;;;-142.43;100.00;63430.59;4959594;29;20095;-82
2022/02/22 09:05:24;;;;;;;22.90;9.07;;;;;;;-142.43;100.00;63430.59;4959997;29;20059;-82
2022/02/22 09:07:51;;;;;;;23.27;8.77;;;;;;;-142.43;100.00;63430.59;4958993;29;20051;-80
2022/02/22 09:10:17;;;;;;;30.65;9.32;;;;;;;-142.43;100.00;63430.59;4958414;29;20130;-81
2022/02/22 09:12:45;;;;;;;27.65;9.52;;;;;;;-142.43;100.00;63430.59;4958694;29;20094;-81
2022/02/22 09:15:13;;;;;;;25.00;9.18;;;;;;;-142.43;100.00;63430.59;4956430;29;20047;-82
2022/02/22 09:17:41;;;;;;;26.17;9.63;;;;;;;-142.43;100.00;63430.59;4956377;29;20059;-82
2022/02/22 09:20:09;;;;;;;23.20;10.20;;;;;;;-142.43;100.00;63430.59;4941608;29;20568;-82
2022/02/22 09:22:36;;;;;;;26.45;10.77;;;;;;;-142.43;100.00;63430.59;4949476;29;20075;-82
2022/02/22 09:25:04;;;;;;;23.90;9.90;;;;;;;-142.43;100.00;63430.59;4950177;29;20051;-82
2022/02/22 09:27:31;;;;;;;20.30;9.57;;;;;;;-142.43;100.00;63430.59;4949076;29;20051;-81
2022/02/22 09:29:58;;;;;;;31.73;11.23;;;;;;;-142.43;100.00;63430.59;4940053;29;20468;-83
2022/02/22 09:32:27;;;;;;;23.80;9.68;;;;;;;-142.43;100.00;63430.59;4928906;29;20513;-83
2022/02/22 09:34:54;;;;;;;23.63;10.38;;;;;;;-142.43;100.00;63430.59;4929564;29;20074;-82
2022/02/22 09:37:21;;;;;;;20.35;8.93;;;;;;;-142.43;100.00;63430.59;4927617;29;20074;-83
2022/02/22 09:39:47;;;;;;;21.35;9.15;;;;;;;-142.43;100.00;63430.59;4931850;29;20055;-82
2022/02/22 09:42:14;;;;;;;20.35;8.57;;;;;;;-142.43;100.00;63430.59;4933200;29;20066;-83
2022/02/22 09:44:41;;;;;;;17.67;7.88;;;;;;;-142.43;100.00;63430.59;4936671;29;20067;-82
2022/02/22 09:47:09;;;;;;;24.13;7.97;;;;;;;-142.43;100.00;63430.59;4946872;29;20107;-81
2022/02/22 09:49:37;;;;;;;18.98;7.28;;;;;;;-142.43;100.00;63430.59;4930005;29;20044;-82
2022/02/22 09:52:05;;;;;;;17.85;7.43;;;;;;;-142.43;100.00;63430.59;4934165;29;20087;-81
2022/02/22 09:54:33;;;;;;;17.63;7.25;;;;;;;-142.43;100.00;63430.59;4933594;29;20044;-81
2022/02/22 09:57:00;;;;;;;16.92;6.88;;;;;;;-142.43;100.00;63430.59;4943923;28;20140;-80
2022/02/22 09:59:27;;;;;;;15.27;6.55;;;;;;;-142.43;100.00;63430.59;4968270;28;20062;-81
2022/02/22 10:01:56;;;;;;;19.25;6.60;;;;;;;-142.43;100.00;63430.59;4967586;28;20141;-82
2022/02/22 10:04:23;;;;;;;17.65;6.20;;;;;;;-142.43;100.00;63430.59;4973799;28;20584;-84
2022/02/22 10:07:00;;;;;;;17.98;5.68;;;;;;;-142.43;100.00;63430.59;4972754;28;20237;-85
2022/02/22 10:09:27;;;;;;;14.95;5.97;;;;;;;-142.43;100.00;63430.59;4973520;28;20187;-83
2022/02/22 10:11:55;;;;;;;15.15;5.93;;;;;;;-142.43;100.00;63430.59;4961288;28;20081;-83
2022/02/22 10:14:23;;;;;;;19.27;6.80;;;;;;;-142.43;100.00;63430.59;4963577;29;20051;-82
2022/02/22 10:16:50;;;;;;;20.27;6.95;;;;;;;-142.43;100.00;63430.59;4964643;29;20062;-82
2022/02/22 10:19:18;;;;;;;14.98;6.47;;;;;;;-142.43;100.00;63430.59;4962908;29;20057;-81
2022/02/22 10:21:51;;;;;;;15.88;5.82;;;;;;;-142.43;100.00;63430.59;4966080;29;20082;-82
2022/02/22 10:24:20;;;;;;;18.55;6.78;;;;;;;-142.43;100.00;63430.59;4959721;29;20039;-81
2022/02/22 10:26:49;;;;;;;19.75;6.43;;;;;;;-142.43;100.00;63430.59;4966067;29;20058;-81
2022/02/22 10:29:20;;;;;;;13.30;5.95;;;;;;;-142.43;100.00;63430.59;4962024;29;20099;-83
2022/02/22 10:31:49;;;;;;;11.95;5.32;;;;;;;-142.43;100.00;63430.59;4968515;29;20074;-82
2022/02/22 10:34:16;;;;;;;13.50;5.55;;;;;;;-142.43;100.00;63430.59;4972081;29;20083;-82
2022/02/22 10:36:45;;;;;;;16.05;5.43;;;;;;;-142.43;100.00;63430.59;4971825;29;20055;-83
2022/02/22 10:39:22;;;;;;;13.05;5.55;;;;;;;-142.43;100.00;63430.59;4971562;29;20043;-82
2022/02/22 10:41:53;;;;;;;20.45;6.30;;;;;;;-142.43;100.00;63430.59;4970482;29;20061;-84
2022/02/22 10:44:29;;;;;;;15.90;5.50;;;;;;;-142.43;100.00;63430.59;4971818;29;20118;-84
2022/02/22 10:46:56;;;;;;;18.10;5.78;;;;;;;-142.43;100.00;63430.59;4963763;29;20085;-84
2022/02/22 10:49:32;;;;;;;19.05;6.05;;;;;;;-142.43;100.00;63430.59;4966025;29;20207;-85
2022/02/22 10:52:05;;;;;;;19.02;5.40;;;;;;;-142.43;100.00;63430.59;4963483;28;20526;-84
2022/02/22 10:54:33;;;;;;;22.20;6.13;;;;;;;-142.43;100.00;63430.59;4964193;29;20071;-85
2022/02/22 10:57:00;;;;;;;21.00;6.38;;;;;;;-142.43;100.00;63430.59;4965193;29;20111;-84
2022/02/22 10:59:31;;;;;;;20.27;6.00;;;;;;;-142.43;100.00;63430.59;4965385;29;20047;-84
2022/02/22 11:01:59;;;;;;;23.55;6.30;;;;;;;-142.43;100.00;63430.59;4965979;29;20470;-85
2022/02/22 11:04:31;;;;;;;20.95;5.63;;;;;;;-142.43;100.00;63430.59;4965377;29;20043;-85
2022/02/22 11:07:00;;;;;;;28.15;5.28;;;;;;;-142.43;100.00;63430.59;4965896;29;20051;-85